Latest Weather Observations for Blackwater Airport

IDQ60801

Issued at 11:35 am EST Thursday 23 October 2014 (issued every 30 minutes, with the page automatically refreshed every 10 minutes)

About weather observations | Map of weather stations | Latest weather observations for QLD | Other Formats
Station Details ID: 035134 Name: BLACKWATER AIRPORT Lat: -23.60 Lon: 148.81 Height: 192.95 m
Data from the previous 72 hours. | See also: Recent months at Blackwater Airport
Date/Time
EST
Temp
°C
App
Temp
°C
Dew
Point
Rel
Hum
%
Delta-T
°C
Wind Press
QNH
hPa
Press
MSL
hPa
Rain
since 9 am
mm
Dir
 
Spd
km/h
Gust
km/h
Spd
kts
Gust
kts
23/11:30am 28.1 25.9 10.8 34 9.9 E 13 24 7 13 1020.1 1019.1 0.0
23/11:00am 27.0 24.9 11.1 37 9.1 SE 13 22 7 12 1020.6 1019.6 0.0
23/10:30am 25.7 24.5 11.5 41 8.1 SSE 9 19 5 10 1021.2 1020.2 0.0
23/10:00am 24.4 22.5 11.7 45 7.2 SE 13 20 7 11 1021.6 1020.6 0.0
23/09:30am 23.8 22.0 12.1 48 6.7 S 13 20 7 11 1021.9 1021.0 0.0
23/09:00am 22.7 20.9 12.0 50 6.1 NE 13 20 7 11 1022.1 1021.2 0.0
23/08:30am 22.0 20.3 12.3 54 5.5 E 13 26 7 14 1022.4 1021.5 0.0
23/08:00am 21.1 19.4 12.3 57 5.0 E 13 20 7 11 1022.4 1021.5 0.0
23/07:30am 21.5 19.7 13.2 59 4.8 E 15 22 8 12 1022.3 1021.4 0.0
23/07:00am 20.0 17.7 13.0 64 4.0 E 17 20 9 11 1022.0 1021.1 0.0
23/06:30am 18.7 18.1 13.6 72 2.9 ESE 9 15 5 8 1022.0 1021.1 0.0
23/06:00am 15.8 15.6 13.1 84 1.5 SSE 6 9 3 5 1021.9 1021.0 0.0
23/05:30am 15.0 14.6 12.3 84 1.5 ESE 6 9 3 5 1021.5 1020.5 0.0
23/05:00am 15.4 14.6 12.9 85 1.4 ENE 9 11 5 6 1021.2 1020.2 0.0
23/04:30am 14.6 13.5 12.1 85 1.4 N 9 9 5 5 1021.2 1020.2 0.0
23/04:00am 15.7 14.1 12.8 83 1.6 NE 13 15 7 8 1021.0 1020.0 0.0
23/03:30am 16.9 16.0 13.6 81 1.9 NNE 11 15 6 8 1020.9 1019.9 0.0
23/03:00am 16.4 15.4 13.3 82 1.7 N 11 15 6 8 1020.7 1019.7 0.0
23/02:30am 16.0 14.5 13.1 83 1.6 NNE 13 15 7 8 1020.7 1019.7 0.0
23/02:00am 15.8 14.4 12.2 79 2.0 N 11 13 6 7 1020.9 1019.9 0.0
23/01:30am 16.1 14.6 11.9 76 2.3 N 11 15 6 8 1021.2 1020.2 0.0
23/01:00am 17.7 16.0 12.6 72 2.9 NE 13 20 7 11 1021.5 1020.5 0.0
23/12:30am 18.3 15.5 12.7 70 3.2 ENE 19 26 10 14 1021.7 1020.8 0.0
23/12:00am 18.7 15.8 12.9 69 3.3 ENE 20 28 11 15 1021.7 1020.8 0.0
 
Date/Time
EST
Temp
°C
App
Temp
°C
Dew
Point
Rel
Hum
%
Delta-T
°C
Wind Press
QNH
hPa
Press
MSL
hPa
Rain
since 9 am
mm
Dir
 
Spd
km/h
Gust
km/h
Spd
kts
Gust
kts
22/11:30pm 18.7 16.1 12.0 65 3.7 NE 17 22 9 12 1021.9 1021.0 0.0
22/11:00pm 18.9 16.4 12.2 65 3.7 NE 17 22 9 12 1021.9 1021.0 0.0
22/10:30pm 19.6 16.6 12.6 64 4.0 NE 20 28 11 15 1021.8 1020.9 0.0
22/10:00pm 20.4 16.4 13.1 63 4.2 ENE 26 37 14 20 1021.4 1020.4 0.0
22/09:30pm 21.1 16.7 13.0 60 4.7 ENE 28 41 15 22 1021.1 1020.1 0.0
22/09:00pm 22.2 17.5 13.3 57 5.2 ENE 30 41 16 22 1020.6 1019.6 0.0
22/08:30pm 23.1 19.5 13.0 53 5.9 ENE 24 35 13 19 1020.2 1019.2 0.0
22/08:00pm 23.9 20.5 9.1 39 8.0 E 17 26 9 14 1019.8 1018.8 0.0
22/07:30pm 24.8 21.4 9.1 37 8.6 E 17 22 9 12 1019.4 1018.5 0.0
22/07:00pm 25.3 22.2 8.7 35 9.0 E 15 20 8 11 1019.0 1018.1 0.0
22/06:30pm 26.1 22.7 7.7 31 9.9 E 15 17 8 9 1018.9 1018.0 0.0
22/06:00pm 27.7 23.4 7.0 27 11.1 ESE 19 28 10 15 1018.6 1017.7 0.0
22/05:30pm 28.8 24.8 6.8 25 11.8 ESE 17 26 9 14 1018.4 1017.5 0.0
22/05:00pm 29.4 24.9 6.1 23 12.4 ESE 19 24 10 13 1018.2 1017.3 0.0
22/04:30pm 30.1 26.1 6.7 23 12.6 ESE 17 24 9 13 1017.9 1017.0 0.0
22/04:00pm 29.4 28.8 10.5 31 10.8 E 4 11 2 6 1018.0 1017.1 0.0
22/03:30pm 28.7 25.7 10.8 33 10.3 ESE 17 30 9 16 1018.2 1017.3 0.0
22/03:00pm 29.0 28.2 11.6 34 10.1 NE 7 15 4 8 1018.3 1017.4 0.0
22/02:30pm 29.4 27.5 11.9 34 10.3 ENE 13 24 7 13 1018.7 1017.8 0.0
22/02:00pm 29.3 27.7 11.4 33 10.4 ENE 11 24 6 13 1019.2 1018.3 0.0
22/01:30pm 28.9 26.3 11.9 35 9.9 E 17 24 9 13 1019.9 1018.9 0.0
22/01:00pm 29.9 27.2 12.8 35 10.2 NE 19 28 10 15 1020.3 1019.3 0.0
22/12:30pm 27.1 25.1 11.6 38 8.9 SSE 13 24 7 13 1020.9 1019.9 0.0
22/12:00pm 28.5 26.1 12.8 38 9.3 ENE 17 30 9 16 1021.3 1020.3 0.0
22/11:30am 27.1 24.7 12.7 41 8.5 E 17 26 9 14 1022.1 1021.2 0.0
22/11:00am 27.3 25.4 12.9 41 8.5 NE 15 24 8 13 1022.6 1021.7 0.0
22/10:30am 25.6 22.9 12.8 45 7.5 ESE 19 28 10 15 1023.1 1022.2 0.0
22/10:00am 24.8 21.8 12.4 46 7.1 E 20 28 11 15 1023.5 1022.6 0.0
22/09:30am 24.5 22.1 13.7 51 6.4 E 19 35 10 19 1023.9 1023.0 0.0
22/09:00am 24.8 22.4 14.3 52 6.2 ENE 20 30 11 16 1024.0 1023.1 0.0
22/08:30am 23.2 20.3 13.9 56 5.5 E 22 30 12 16 1023.9 1023.0 0.0
22/08:00am 22.2 19.1 13.5 57 5.0 E 22 30 12 16 1024.0 1023.1 0.0
22/07:30am 22.3 20.3 14.9 63 4.4 E 19 26 10 14 1023.9 1023.0 0.0
22/07:00am 21.0 19.0 14.9 68 3.6 E 19 24 10 13 1023.8 1022.9 0.0
22/06:30am 20.1 20.1 15.1 73 3.0 E 9 20 5 11 1023.6 1022.7 0.0
22/06:00am 18.4 18.8 14.7 79 2.2 SE 6 9 3 5 1023.3 1022.4 0.0
22/05:30am 17.6 17.0 14.5 82 1.8 E 11 17 6 9 1023.0 1022.1 0.0
22/05:00am 17.2 16.0 14.1 82 1.8 E 13 17 7 9 1022.7 1021.8 0.0
22/04:30am 17.4 15.9 14.1 81 1.9 ENE 15 17 8 9 1022.5 1021.6 0.0
22/04:00am 17.8 15.9 14.3 80 2.0 ENE 17 22 9 12 1022.4 1021.5 0.0
22/03:30am 17.6 16.1 14.3 81 1.9 E 15 22 8 12 1022.4 1021.5 0.0
22/03:00am 17.7 16.5 14.0 79 2.1 ENE 13 19 7 10 1022.4 1021.5 0.0
22/02:30am 18.2 16.2 13.9 76 2.5 ENE 17 24 9 13 1022.6 1021.7 0.0
22/02:00am 18.4 15.8 13.9 75 2.6 ENE 20 28 11 15 1022.7 1021.8 0.0
22/01:30am 18.5 16.4 13.6 73 2.8 ENE 17 26 9 14 1023.2 1022.3 0.0
22/01:00am 18.9 16.8 13.5 71 3.1 ENE 17 26 9 14 1023.4 1022.5 0.0
22/12:30am 19.2 16.0 13.2 68 3.4 ENE 22 35 12 19 1023.5 1022.6 0.0
22/12:00am 19.3 16.4 13.0 67 3.6 ENE 20 30 11 16 1023.8 1022.9 0.0
 
Date/Time
EST
Temp
°C
App
Temp
°C
Dew
Point
Rel
Hum
%
Delta-T
°C
Wind Press
QNH
hPa
Press
MSL
hPa
Rain
since 9 am
mm
Dir
 
Spd
km/h
Gust
km/h
Spd
kts
Gust
kts
21/11:30pm 19.6 16.3 12.8 65 3.9 ENE 22 35 12 19 1024.2 1023.3 0.0
21/11:00pm 20.0 15.5 12.7 63 4.1 ENE 28 39 15 21 1024.2 1023.3 0.0
21/10:30pm 20.5 16.2 12.2 59 4.7 ENE 26 41 14 22 1024.0 1023.1 0.0
21/10:00pm 20.3 16.8 11.0 55 5.1 ENE 20 28 11 15 1024.2 1023.3 0.0
21/09:30pm 20.6 16.1 10.1 51 5.7 ENE 24 33 13 18 1024.0 1023.1 0.0
21/09:00pm 21.1 17.1 9.0 46 6.4 NE 20 26 11 14 1023.8 1022.9 0.0
21/08:30pm 21.1 17.0 7.7 42 7.0 NE 19 24 10 13 1023.4 1022.5 0.0
21/08:00pm 22.3 17.8 6.9 37 7.9 NE 20 30 11 16 1022.9 1022.0 0.0
21/07:30pm 23.1 18.4 5.1 31 9.1 NE 19 26 10 14 1022.5 1021.6 0.0
21/07:00pm 22.7 19.0 4.7 31 8.9 NE 13 20 7 11 1022.1 1021.2 0.0
21/06:30pm 24.5 20.7 5.8 30 9.6 NE 15 24 8 13 1021.5 1020.5 0.0
21/06:00pm 26.1 21.5 6.7 29 10.2 NE 20 28 11 15 1021.0 1020.0 0.0
21/05:30pm 27.6 23.0 8.0 29 10.7 NE 22 32 12 17 1020.7 1019.7 0.0
21/05:00pm 28.8 25.0 7.4 26 11.6 ESE 17 24 9 13 1020.3 1019.3 0.0
21/04:30pm 29.6 25.6 8.1 26 11.9 E 19 28 10 15 1020.1 1019.1 0.0
21/04:00pm 29.5 25.2 8.0 26 11.8 ESE 20 30 11 16 1020.0 1019.0 0.0
21/03:30pm 30.0 26.2 9.0 27 11.8 ENE 19 26 10 14 1020.1 1019.1 0.0
21/03:00pm 29.3 24.9 8.9 28 11.4 E 22 37 12 20 1020.3 1019.3 0.0
21/02:30pm 29.6 25.3 9.2 28 11.5 ENE 22 32 12 17 1020.6 1019.6 0.0
21/02:00pm 28.3 24.6 10.0 32 10.3 E 20 30 11 16 1021.3 1020.3 0.0
21/01:30pm 28.1 24.6 10.3 33 10.1 E 19 32 10 17 1021.6 1020.6 0.0
21/01:00pm 27.8 24.3 10.1 33 10.0 E 19 26 10 14 1022.1 1021.2 0.0
21/12:30pm 28.2 24.4 9.9 32 10.3 ENE 20 33 11 18 1022.6 1021.7 0.0
21/12:00pm 26.7 22.7 9.1 33 9.7 E 20 35 11 19 1023.3 1022.4 0.0
21/11:30am 26.5 22.9 9.8 35 9.3 E 19 28 10 15 1023.9 1023.0 0.0
21/11:00am 25.9 22.1 11.3 40 8.3 E 22 30 12 16 1024.4 1023.5 0.0
21/10:30am 25.6 22.5 11.7 42 8.0 ENE 19 28 10 15 1024.7 1023.8 0.0
21/10:00am 24.6 21.2 12.5 46 7.0 ESE 22 35 12 19 1025.1 1024.1 0.0
21/09:30am 24.4 20.4 11.7 45 7.3 E 24 35 13 19 1025.2 1024.2 0.0
21/09:00am 24.4 20.4 11.7 45 7.2 E 24 35 13 19 1025.2 1024.2 0.0
21/08:30am 23.2 19.4 11.3 47 6.7 E 22 35 12 19 1025.3 1024.3 0.0
21/08:00am 21.7 17.8 12.0 54 5.5 ESE 24 33 13 18 1025.2 1024.2 0.0
21/07:30am 21.2 17.3 12.1 56 5.2 E 24 33 13 18 1025.1 1024.1 0.0
21/07:00am 20.6 17.8 12.6 60 4.5 ESE 19 28 10 15 1024.7 1023.8 0.0
21/06:30am 19.2 17.3 12.9 67 3.6 ESE 15 20 8 11 1024.3 1023.4 0.0
21/06:00am 17.8 16.6 12.9 73 2.8 SE 11 13 6 7 1023.9 1023.0 0.0
21/05:30am 17.1 16.2 12.6 75 2.5 SSE 9 11 5 6 1023.4 1022.5 0.0
21/05:00am 17.4 16.5 12.7 74 2.6 SE 9 13 5 7 1023.1 1022.2 0.0
21/04:30am 17.4 16.6 12.9 75 2.5 ESE 9 15 5 8 1023.0 1022.1 0.0
21/04:00am 17.0 16.0 12.3 74 2.6 ESE 9 13 5 7 1022.9 1022.0 0.0
21/03:30am 17.8 15.0 12.7 72 2.9 E 19 26 10 14 1022.8 1021.9 0.0
21/03:00am 18.0 15.6 12.5 70 3.1 E 17 24 9 13 1022.7 1021.8 0.0
21/02:30am 17.8 15.2 12.0 69 3.2 E 17 26 9 14 1022.4 1021.5 0.0
21/02:00am 18.1 15.1 11.9 67 3.4 E 19 26 10 14 1022.3 1021.4 0.0
21/01:30am 17.8 15.0 11.4 66 3.5 E 17 22 9 12 1022.4 1021.5 0.0
21/01:00am 18.2 14.8 11.3 64 3.8 ENE 20 28 11 15 1022.7 1021.8 0.0
21/12:30am 18.4 14.3 11.5 64 3.8 ENE 24 37 13 20 1022.8 1021.9 0.0
21/12:00am 18.6 14.9 11.4 63 4.0 ENE 22 28 12 15 1023.0 1022.1 0.0
 
Date/Time
EST
Temp
°C
App
Temp
°C
Dew
Point
Rel
Hum
%
Delta-T
°C
Wind Press
QNH
hPa
Press
MSL
hPa
Rain
since 9 am
mm
Dir
 
Spd
km/h
Gust
km/h
Spd
kts
Gust
kts
20/11:30pm 18.9 15.6 11.0 60 4.3 ENE 19 28 10 15 1023.4 1022.5 0.0
20/11:00pm 19.6 15.9 10.3 55 5.0 NE 20 28 11 15 1023.4 1022.5 0.0
20/10:30pm 20.1 15.6 9.9 52 5.5 ENE 24 32 13 17 1023.2 1022.3 0.0
20/10:00pm 20.7 16.7 9.0 47 6.2 ENE 20 28 11 15 1023.1 1022.2 0.0
20/09:30pm 21.6 16.3 8.5 43 7.0 ENE 26 35 14 19 1022.9 1022.0 0.0
20/09:00pm 22.3 16.5 8.1 40 7.5 ENE 28 37 15 20 1022.5 1021.6 0.0
20/08:30pm 22.9 18.4 7.0 36 8.3 ENE 20 28 11 15 1021.9 1021.0 0.0
20/08:00pm 23.0 18.8 5.9 33 8.7 ENE 17 24 9 13 1021.3 1020.3 0.0
20/07:30pm 25.0 20.9 6.2 30 9.8 E 17 32 9 17 1020.6 1019.6 0.0
20/07:00pm 24.4 21.0 5.7 30 9.6 E 13 15 7 8 1020.0 1019.0 0.0
20/06:30pm 25.6 21.8 5.8 28 10.3 E 15 19 8 10 1019.8 1018.8 0.0
20/06:00pm 27.4 22.8 5.6 25 11.4 E 19 26 10 14 1019.4 1018.5 0.0
20/05:30pm 28.4 23.3 5.9 24 11.9 E 22 32 12 17 1019.0 1018.1 0.0
20/05:00pm 29.2 23.7 6.0 23 12.3 E 24 33 13 18 1018.7 1017.8 0.0
20/04:30pm 29.4 23.8 5.5 22 12.6 E 24 33 13 18 1018.6 1017.7 0.0
20/04:00pm 30.2 25.0 5.5 21 13.1 E 22 32 12 17 1018.4 1017.5 0.0
20/03:30pm 30.8 26.1 6.0 21 13.3 E 20 35 11 19 1018.5 1017.6 0.0
20/03:00pm 30.4 24.3 4.9 20 13.4 ENE 26 39 14 21 1018.6 1017.7 0.0
20/02:30pm 30.7 25.4 6.6 22 13.0 ENE 24 35 13 19 1019.0 1018.1 0.0
20/02:00pm 29.6 24.0 5.6 22 12.7 E 24 33 13 18 1019.6 1018.6 0.0
20/01:30pm 29.4 24.9 6.1 23 12.4 ESE 19 26 10 14 1020.1 1019.1 0.0
20/01:00pm 29.6 25.7 6.9 24 12.2 E 17 28 9 15 1020.6 1019.6 0.0
20/12:30pm 29.6 25.7 6.9 24 12.3 ENE 17 30 9 16 1021.3 1020.3 0.0
20/12:00pm 28.2 23.5 5.1 23 12.0 E 19 28 10 15 1021.9 1021.0 0.0

Other Formats:

Comma delimited format used in spreadsheet applications
http://www.bom.gov.au/fwo/IDQ60801/IDQ60801.94398.axf

JavaScript Object Notation format (JSON) in row-major order
http://www.bom.gov.au/fwo/IDQ60801/IDQ60801.94398.json